Hauptseite
METAR-TAF:

METAR-TAF

Flughäfen :

Flughafen Leipzig/Halle

Leipzig, Deutschland

Breite: 51-25N, Länge: 012-14E, Höhe: 144 m

Beobachtung

Neuester Wetterbericht von vor 30 Minuten, um 20:50 UTC
Wind 1 kt aus Süd
Temperatur 5°C
Luftfeuchtigkeit 70%
Luftdruck 1018 hPa
Sichtweite 10 km oder mehr
Leicht bewölkt in der Höhe von 4100 ft

METAR: EDDP 032050Z 19001KT 9999 FEW041 05/M00 Q1018 NOSIG

Zeit: 23:20 (21:20 UTC)

Prognose

Neuester Wetterbericht von vor 4 Stunden und 20 Minuten, um 17:00 UTC
Gültige Prognose vom 03 um 18 UTC bis 04 um 18 UTC
Wind 4 kt aus West
Sichtweite 10 km oder mehr
Aufgelockert bewölkt in der Höhe von 4000 ft
Übergehend zu
vom 04 um 13 UTC bis 04 um 15 UTC
Wind 5 kt aus Ost

TAF: EDDP 031700Z 0318/0418 26004KT 9999 SCT040 BECMG 0413/0415 08005KT

Wetterbeobachtungen und Prognosen von mehr als 4000 Flughäfen (METAR und TAF Bericht).

Die verfügbaren Stationen werden durch gelbe und rote Markierungen auf der Karte dargestellt.

Führen Sie die Maus auf sie, um den Namen der Station zu sehen.

Darauf klicken, um die Beobachtung von Wetterbeobachtungen und Prognosen zu sehen.

Um die Karte zu ändern : klicken Sie auf den grünen Tasten mit einem schwarzen Kreuz Zum Vergrößern, auf den grünen Button mit einem Gedankenstrich zu verkleinern, oder auf die grünen Pfeile für benachbarte Karten.


METAR-TAF: